CST,Max TemperatureF,Mean TemperatureF,Min TemperatureF,Max Dew PointF,MeanDew PointF,Min DewpointF,Max Humidity, Mean Humidity, Min Humidity, Max Sea Level PressureIn, Mean Sea Level PressureIn, Min Sea Level PressureIn, Max VisibilityMiles, Mean VisibilityMiles, Min VisibilityMiles, Max Wind SpeedMPH, Mean Wind SpeedMPH, Max Gust SpeedMPH,PrecipitationIn, CloudCover, Events, WindDirDegrees
2011-11-1,69,58,46,46,41,32,82,58,40,29.89,29.86,29.84,10,10,10,17,8,20,0.08,0,,181
2011-11-2,51,42,32,37,34,32,100,78,50,30.21,30.12,29.97,10,8,0,20,12,34,0.43,8,Rain-Snow-Thunderstorm,350
2011-11-3,50,41,32,32,29,27,87,68,43,30.32,30.26,30.21,10,10,10,16,9,20,0.00,1,,332
2011-11-4,53,42,30,37,32,28,93,72,44,30.26,30.17,30.03,10,10,7,20,6,24,0.00,0,,142
2011-11-5,59,50,42,43,41,39,93,74,48,30.01,29.83,29.63,10,9,7,25,13,36,0.00,0,,148
2011-11-6,55,50,44,43,36,28,76,57,38,30.01,29.80,29.61,10,10,10,25,18,37,0.00,0,,228
2011-11-7,60,46,33,43,32,25,93,63,27,30.19,30.14,30.07,10,10,5,14,3,18,0.38,3,Rain,60
2011-11-8,42,40,39,43,39,34,100,90,76,30.07,30.04,30.01,10,8,4,24,14,34,0.25,8,Rain,19
2011-11-9,50,41,32,36,29,19,93,67,34,30.25,30.16,30.06,10,10,10,24,11,31,0.00,1,,307
2011-11-10,46,38,30,27,20,14,75,51,27,30.29,30.19,30.01,10,10,10,18,8,22,0.00,0,,288
2011-11-11,62,47,32,32,29,25,87,57,27,29.99,29.79,29.73,10,10,10,16,10,21,0.00,0,,205
2011-11-12,57,46,35,37,35,32,93,69,41,29.70,29.55,29.42,10,10,10,21,9,23,0.00,0,,164
2011-11-13,53,48,42,39,33,23,76,56,35,29.59,29.43,29.25,10,10,10,26,12,33,0.00,0,,239
2011-11-14,59,50,42,34,30,23,70,47,25,29.68,29.61,29.53,10,10,10,16,9,21,0.00,2,,226
2011-11-15,55,44,32,32,26,16,75,50,30,30.06,29.82,29.61,10,10,10,21,13,28,0.00,0,,311
2011-11-16,42,32,23,23,15,9,74,51,25,30.31,30.20,30.07,10,10,10,12,4,21,0.00,2,,311
2011-11-17,48,36,23,23,18,14,80,54,29,30.31,30.18,29.95,10,10,10,21,4,28,0.00,0,,186
2011-11-18,59,47,35,37,31,23,76,60,36,29.88,29.73,29.64,10,10,10,24,15,33,0.00,0,,173
2011-11-19,53,42,28,45,34,23,93,78,67,30.10,29.70,29.51,10,10,7,26,13,32,0.00,7,,171
2011-11-20,35,28,21,23,20,18,86,71,60,30.32,30.26,30.19,10,10,10,12,5,17,0.00,2,,2
2011-11-21,35,28,21,32,26,19,100,87,80,30.26,30.20,30.10,10,10,7,5,0,,0.00,5,,134
2011-11-22,42,38,33,41,36,32,100,92,76,30.11,30.06,30.02,10,3,0,7,2,,0.00,7,Fog-Rain,305
2011-11-23,48,40,32,41,36,32,100,94,76,30.17,30.14,30.10,7,3,0,12,7,,0.00,5,Fog,154
2011-11-24,71,53,35,45,38,34,100,67,25,30.07,29.95,29.84,10,9,7,32,13,40,0.00,0,,167
2011-11-25,59,52,44,48,45,43,93,82,63,29.82,29.74,29.64,10,8,5,18,15,24,0.00,4,,167
2011-11-26,50,44,37,45,33,23,93,72,52,30.18,29.96,29.70,10,10,7,34,16,46,0.00,7,,319
2011-11-27,37,32,26,23,20,18,69,58,45,30.28,30.23,30.19,10,10,10,28,15,36,0.00,3,,329
2011-11-28,44,32,19,27,22,16,93,70,39,30.19,30.11,30.06,10,10,10,12,4,16,0.00,0,,163
2011-11-29,42,35,28,30,21,7,86,57,27,30.34,30.26,30.15,10,10,10,15,10,24,0.00,0,,337
2011-11-30,51,38,26,21,16,9,59,42,28,30.18,30.00,29.88,10,10,10,22,9,25,0.00,0,,166